Hutchinson, KS

7:58 AM CST on March 04, 2015 (GMT -0600)
KKSHUTCH9 | Change Station
CLOSE
Current Station
Personal Weather Station
Location: Hutchinson, KS
Elevation: 1549 ft
Nearby Weather Stations

Elev 1549 ft 38.08 °N, 97.92 °W | Updated 5 seconds ago

Light Snow
Light Snow
19.6 °F
Feels Like 11 °F
N
6.0
Wind Variable Wind from NE
Gusts 11.4 mph

Today
High -- | Low -- °F
--% Chance of Precip.
Yesterday
High -- | Low -- °F
Precip. -- in
6:59 AM 6:27 PM
Waxing Gibbous, 99% visible
Pressure 30.27 in
Visibility 2.5 miles
Clouds Mostly Cloudy 3400 ft
Overcast 6000 ft
Windchill 11 °F
Dew Point 11 °F
Humidity 70%
Rainfall 0.00 in
Snow Depth Not available.
UV 0 out of 12
Pollen .50 out of 12
Air Quality Not available.
Flu Activity Not available.
METAR KHUT 041352Z 02008KT 2 1/2SM -SN BKN034 OVC060 M07/M10 A3024 RMK AO2 SLP248 P0000 T10671100

More Conditions Fewer Conditions

Pressure 30.27 in
Visibility 2.5 miles
Clouds Mostly Cloudy 3400 ft
Overcast 6000 ft
Windchill 11 °F
Dew Point 11 °F
Humidity 70%
Rainfall 0.00 in
Snow Depth Not available.
UV 0 out of 12
Pollen .50 out of 12
Air Quality Not available.
Flu Activity Not available.
METAR KHUT 041352Z 02008KT 2 1/2SM -SN BKN034 OVC060 M07/M10 A3024 RMK AO2 SLP248 P0000 T10671100

More Conditions Fewer Conditions

10-Day Weather Forecast

Almanac

Astronomy

Mar. 04, 2015 Rise Set
Actual Time
Civil Twilight
Nautical Twilight
Astronomical Twilight
Moon
Length of Visible Light
Length of Day
Tomorrow will be .
, % of the Moon is Illuminated

Today's Extremes

State Highs State Lows

Community

WunderPhotos

Upload Photos

1,802,453 photos uploaded!

WunderBlogs® & News

Nearby

Air Quality

  Air Quality AQ Index Pollutant
Not available.

Snow Depth

Station Depth Elevation

Earthquake Activity

City Distance Mag. Time & Date
Minimum magnitude displayed is 2.5.

Coastal Water Temperatures

Place Temperature

Nearby Weather Stations

Winter Weather Advisory
Statement as of 3:01 AM CST on March 04, 2015

... Winter Weather Advisory remains in effect until 6 PM CST this
evening...

* timing... a band of light to moderate snow will affect the area
mainly this morning. The band of snow will then sink slowly
southward and exit the area by later this afternoon.

* Snow accumulations... will generally range from 1 to 2
inches... mainly for locations along and near a Hutchinson to
Newton... to Marion line. Snow accumulations are expected to be
slightly Lower North and south of this line.

* Main impact... the snow accumulation will cause some slick spots
on roadways.

Precautionary/preparedness actions...

A Winter Weather Advisory means that periods of winter weather
will cause travel difficulties. Be prepared for slippery roads
and limited visibilities. Use caution while driving.



Jakub